createdAt,value
2023-02-11T00:00:31.825Z,5.55
2023-02-11T00:03:01.353Z,5.65
2023-02-11T00:05:28.675Z,6.50
2023-02-11T00:07:57.817Z,5.93
2023-02-11T00:10:24.634Z,6.15
2023-02-11T00:12:56.631Z,5.38
2023-02-11T00:15:23.590Z,6.05
2023-02-11T00:17:50.391Z,5.03
2023-02-11T00:20:17.243Z,5.55
2023-02-11T00:22:46.971Z,5.18
2023-02-11T00:25:16.614Z,5.70
2023-02-11T00:27:43.418Z,5.20
2023-02-11T00:30:12.802Z,5.53
2023-02-11T00:32:39.634Z,5.40
2023-02-11T00:35:06.667Z,5.35
2023-02-11T00:37:36.497Z,4.40
2023-02-11T00:40:06.748Z,4.65
2023-02-11T00:42:35.701Z,5.40
2023-02-11T00:45:02.591Z,4.68
2023-02-11T00:47:29.872Z,4.63
2023-02-11T00:49:56.822Z,4.97
2023-02-11T00:52:23.662Z,4.30
2023-02-11T00:54:50.500Z,4.43
2023-02-11T00:57:17.254Z,4.43
2023-02-11T00:59:44.138Z,4.68
2023-02-11T01:02:10.957Z,4.10
2023-02-11T01:04:37.704Z,4.38
2023-02-11T01:07:04.512Z,4.38
2023-02-11T01:09:31.305Z,4.28
2023-02-11T01:11:58.106Z,4.75
2023-02-11T01:14:24.907Z,5.00
2023-02-11T01:16:51.723Z,4.88
2023-02-11T01:19:18.567Z,4.35
2023-02-11T01:21:45.347Z,4.45
2023-02-11T01:24:12.182Z,4.47
2023-02-11T01:26:38.989Z,4.72
2023-02-11T01:29:05.911Z,4.20
2023-02-11T01:31:32.967Z,4.45
2023-02-11T01:33:59.819Z,4.47
2023-02-11T01:36:26.578Z,4.57
2023-02-11T01:38:53.349Z,3.75
2023-02-11T01:41:20.319Z,3.75
2023-02-11T01:43:49.149Z,3.58
2023-02-11T01:46:25.168Z,4.22
2023-02-11T01:48:55.738Z,3.75
2023-02-11T01:51:24.904Z,3.63
2023-02-11T01:54:10.990Z,3.78
2023-02-11T01:56:58.060Z,3.10
2023-02-11T01:59:29.120Z,3.28
2023-02-11T02:01:59.038Z,3.75
2023-02-11T02:04:31.290Z,3.22
2023-02-11T02:07:02.774Z,3.60
2023-02-11T02:09:31.120Z,3.22
2023-02-11T02:11:57.957Z,3.30
2023-02-11T02:14:24.739Z,3.35
2023-02-11T02:16:51.509Z,3.40
2023-02-11T02:19:37.053Z,3.45
2023-02-11T02:22:22.756Z,3.72
2023-02-11T02:24:52.913Z,3.05
2023-02-11T02:27:38.440Z,3.40
2023-02-11T02:30:20.395Z,3.67
2023-02-11T02:33:21.843Z,2.90
2023-02-11T02:36:08.213Z,2.78
2023-02-11T02:38:41.852Z,3.10
2023-02-11T02:41:11.108Z,3.00
2023-02-11T02:43:44.385Z,3.50
2023-02-11T02:46:20.851Z,3.50
2023-02-11T02:48:52.864Z,3.53
2023-02-11T02:51:38.413Z,2.78
2023-02-11T02:54:23.863Z,3.13
2023-02-11T02:57:03.073Z,3.08
2023-02-11T02:59:39.258Z,3.53
2023-02-11T03:02:17.456Z,3.40
2023-02-11T03:04:47.367Z,3.40
2023-02-11T03:07:20.976Z,3.60
2023-02-11T03:10:00.110Z,3.33
2023-02-11T03:12:28.984Z,3.25
2023-02-11T03:14:55.760Z,3.38
2023-02-11T03:17:23.627Z,3.00
2023-02-11T03:19:50.737Z,3.28
2023-02-11T03:22:20.083Z,3.60
2023-02-11T03:24:47.039Z,3.03
2023-02-11T03:27:20.950Z,3.67
2023-02-11T03:29:59.922Z,3.40
2023-02-11T03:32:35.601Z,3.30
2023-02-11T03:35:10.124Z,3.33
2023-02-11T03:37:40.251Z,3.33
2023-02-11T03:40:10.257Z,3.67
2023-02-11T03:42:40.243Z,3.45
2023-02-11T03:45:09.327Z,3.75
2023-02-11T03:47:38.817Z,3.70
2023-02-11T03:50:07.739Z,2.92
2023-02-11T03:52:36.621Z,3.80
2023-02-11T03:55:05.971Z,3.50
2023-02-11T03:57:34.703Z,4.05
2023-02-11T04:00:04.401Z,3.70
2023-02-11T04:02:32.818Z,3.72
2023-02-11T04:04:59.588Z,3.17
2023-02-11T04:07:26.796Z,3.25
2023-02-11T04:09:54.018Z,3.85
2023-02-11T04:12:20.802Z,3.80
2023-02-11T04:14:47.668Z,3.47
2023-02-11T04:17:14.502Z,2.90
2023-02-11T04:19:41.279Z,3.72
2023-02-11T04:22:08.355Z,3.35
2023-02-11T04:24:35.236Z,3.90
2023-02-11T04:27:02.212Z,3.70
2023-02-11T04:29:29.057Z,3.55
2023-02-11T04:31:56.206Z,4.18
2023-02-11T04:34:24.553Z,3.35
2023-02-11T04:36:51.374Z,3.47
2023-02-11T04:39:18.215Z,3.15
2023-02-11T04:41:45.270Z,3.65
2023-02-11T04:44:12.113Z,3.30
2023-02-11T04:46:38.912Z,3.40
2023-02-11T04:49:05.969Z,3.30
2023-02-11T04:51:32.956Z,3.00
2023-02-11T04:53:59.773Z,3.78
2023-02-11T04:56:26.648Z,3.03
2023-02-11T04:58:53.425Z,3.10
2023-02-11T05:01:20.309Z,3.55
2023-02-11T05:03:47.304Z,3.33
2023-02-11T05:06:14.269Z,3.15
2023-02-11T05:08:41.281Z,3.63
2023-02-11T05:11:08.705Z,3.28
2023-02-11T05:13:35.591Z,3.20
2023-02-11T05:16:02.417Z,2.72
2023-02-11T05:18:29.280Z,3.38
2023-02-11T05:20:56.140Z,2.92
2023-02-11T05:23:22.928Z,2.70
2023-02-11T05:25:50.149Z,2.63
2023-02-11T05:28:17.265Z,2.75
2023-02-11T05:30:44.145Z,2.42
2023-02-11T05:33:11.053Z,3.15
2023-02-11T05:35:37.938Z,2.70
2023-02-11T05:38:04.888Z,3.15
2023-02-11T05:40:31.757Z,2.70
2023-02-11T05:42:58.598Z,2.17
2023-02-11T05:45:25.378Z,2.90
2023-02-11T05:47:52.154Z,2.47
2023-02-11T05:50:19.115Z,2.70
2023-02-11T05:52:45.905Z,2.53
2023-02-11T05:55:12.886Z,2.88
2023-02-11T05:57:39.756Z,2.58
2023-02-11T06:00:06.803Z,2.63
2023-02-11T06:02:33.967Z,2.30
2023-02-11T06:05:00.825Z,2.20
2023-02-11T06:07:27.662Z,2.38
2023-02-11T06:09:54.522Z,2.20
2023-02-11T06:12:21.372Z,2.47
2023-02-11T06:14:48.218Z,2.58
2023-02-11T06:17:15.770Z,2.63
2023-02-11T06:19:42.812Z,2.55
2023-02-11T06:22:09.739Z,2.42
2023-02-11T06:24:58.492Z,2.60
2023-02-11T06:27:24.143Z,2.28
2023-02-11T06:29:52.506Z,2.38
2023-02-11T06:32:39.547Z,2.40
2023-02-11T06:35:06.616Z,2.50
2023-02-11T06:37:34.324Z,2.40
2023-02-11T06:40:01.238Z,2.38
2023-02-11T06:42:28.021Z,2.47
2023-02-11T06:44:54.811Z,2.78
2023-02-11T06:47:21.645Z,2.53
2023-02-11T06:49:48.601Z,2.50
2023-02-11T06:52:15.391Z,2.42
2023-02-11T06:54:42.225Z,2.30
2023-02-11T06:57:09.020Z,1.98
2023-02-11T06:59:35.969Z,2.25
2023-02-11T07:02:02.957Z,2.25
2023-02-11T07:04:29.816Z,1.80
2023-02-11T07:06:56.620Z,1.80
2023-02-11T07:09:23.398Z,2.50
2023-02-11T07:11:50.233Z,1.75
2023-02-11T07:14:17.061Z,2.00
2023-02-11T07:16:43.862Z,2.20
2023-02-11T07:19:10.743Z,2.10
2023-02-11T07:21:37.607Z,1.65
2023-02-11T07:24:10.753Z,1.58
2023-02-11T07:26:37.893Z,2.10
2023-02-11T07:29:04.670Z,2.10
2023-02-11T07:31:31.839Z,1.80
2023-02-11T07:34:00.055Z,1.77
2023-02-11T07:36:27.848Z,1.65
2023-02-11T07:38:54.685Z,1.83
2023-02-11T07:41:23.251Z,1.90
2023-02-11T07:43:53.879Z,1.83
2023-02-11T07:46:25.687Z,1.33
2023-02-11T07:48:57.375Z,2.08
2023-02-11T07:51:26.115Z,1.98
2023-02-11T07:53:56.338Z,1.55
2023-02-11T07:56:26.015Z,1.45
2023-02-11T07:58:58.162Z,1.65
2023-02-11T08:01:30.820Z,1.63
2023-02-11T08:04:02.322Z,1.95
2023-02-11T08:06:33.153Z,1.60
2023-02-11T08:09:09.177Z,1.50
2023-02-11T08:11:39.302Z,1.83
2023-02-11T08:14:08.625Z,2.05
2023-02-11T08:16:39.381Z,1.40
2023-02-11T08:19:08.129Z,1.52
2023-02-11T08:21:37.317Z,1.70
2023-02-11T08:24:06.542Z,1.23
2023-02-11T08:26:39.549Z,1.48
2023-02-11T08:29:14.306Z,1.40
2023-02-11T08:31:42.703Z,1.48
2023-02-11T08:34:14.313Z,1.38
2023-02-11T08:39:19.791Z,1.20
2023-02-11T08:41:50.953Z,1.30
2023-02-11T08:44:22.659Z,1.42
2023-02-11T08:49:16.410Z,1.30
2023-02-11T08:51:43.729Z,1.10
2023-02-11T08:54:10.568Z,1.20
2023-02-11T08:56:40.736Z,1.10
2023-02-11T08:59:09.349Z,1.15
2023-02-11T09:01:36.739Z,1.25
2023-02-11T09:04:05.946Z,1.30
2023-02-11T09:06:32.965Z,1.05
2023-02-11T09:08:59.874Z,1.30
2023-02-11T09:11:28.673Z,1.25
2023-02-11T09:13:55.548Z,1.48
2023-02-11T09:16:31.560Z,1.13
2023-02-11T09:18:59.060Z,1.13
2023-02-11T09:21:26.704Z,1.15
2023-02-11T09:23:53.603Z,1.20
2023-02-11T09:26:21.926Z,1.27
2023-02-11T09:28:51.663Z,1.40
2023-02-11T09:31:22.679Z,1.10
2023-02-11T09:33:50.589Z,1.00
2023-02-11T09:36:40.138Z,1.08
2023-02-11T09:39:12.348Z,1.17
2023-02-11T09:41:49.362Z,1.25
2023-02-11T09:44:26.998Z,0.90
2023-02-11T09:47:03.192Z,1.10
2023-02-11T09:49:36.209Z,1.05
2023-02-11T09:52:06.106Z,1.08
2023-02-11T09:54:52.269Z,1.00
2023-02-11T09:57:28.322Z,1.00
2023-02-11T09:59:56.623Z,0.85
2023-02-11T10:02:34.383Z,1.10
2023-02-11T10:05:27.777Z,1.00
2023-02-11T10:08:01.176Z,1.10
2023-02-11T10:10:45.739Z,1.30
2023-02-11T10:13:21.806Z,1.23
2023-02-11T10:16:06.727Z,1.58
2023-02-11T10:18:46.229Z,0.95
2023-02-11T10:21:25.525Z,1.15
2023-02-11T10:23:57.634Z,1.20
2023-02-11T10:26:27.827Z,1.20
2023-02-11T10:28:56.108Z,0.98
2023-02-11T10:31:25.972Z,0.90
2023-02-11T10:34:07.995Z,1.02
2023-02-11T10:36:36.240Z,0.80
2023-02-11T10:39:19.306Z,1.20
2023-02-11T10:41:57.196Z,1.17
2023-02-11T10:46:54.618Z,1.08
2023-02-11T10:49:35.534Z,1.33
2023-02-11T10:52:16.228Z,1.08
2023-02-11T10:54:55.670Z,1.00
2023-02-11T10:57:25.651Z,0.90
2023-02-11T10:59:57.035Z,1.08
2023-02-11T11:02:32.024Z,0.88
2023-02-11T11:05:00.947Z,1.00
2023-02-11T11:07:35.133Z,0.82
2023-02-11T11:10:07.446Z,0.90
2023-02-11T11:12:42.342Z,1.20
2023-02-11T11:15:24.657Z,1.40
2023-02-11T11:18:21.582Z,1.02
2023-02-11T11:21:02.397Z,1.17
2023-02-11T11:23:30.457Z,1.20
2023-02-11T11:26:08.564Z,0.93
2023-02-11T11:28:40.954Z,0.73
2023-02-11T11:31:16.006Z,1.40
2023-02-11T11:33:44.665Z,0.73
2023-02-11T11:36:15.439Z,0.90
2023-02-11T11:39:08.659Z,1.02
2023-02-11T11:41:37.748Z,1.45
2023-02-11T11:44:21.954Z,0.90
2023-02-11T11:46:53.770Z,1.10
2023-02-11T11:49:44.239Z,1.13
2023-02-11T11:52:31.401Z,0.90
2023-02-11T11:55:05.056Z,1.25
2023-02-11T11:57:35.293Z,1.02
2023-02-11T12:00:02.116Z,1.00
2023-02-11T12:02:41.228Z,1.20
2023-02-11T12:05:27.883Z,0.90
2023-02-11T12:08:10.058Z,0.95
2023-02-11T12:10:43.009Z,0.98
2023-02-11T12:13:24.028Z,1.30
2023-02-11T12:16:19.122Z,1.20
2023-02-11T12:18:52.088Z,0.98
2023-02-11T12:21:31.100Z,1.00
2023-02-11T12:24:18.991Z,1.10
2023-02-11T12:26:53.090Z,0.90
2023-02-11T12:29:46.389Z,1.20
2023-02-11T12:32:13.364Z,1.10
2023-02-11T12:35:00.446Z,1.35
2023-02-11T12:37:27.350Z,1.30
2023-02-11T12:40:03.189Z,1.00
2023-02-11T12:42:55.511Z,1.27
2023-02-11T12:45:34.130Z,1.00
2023-02-11T12:48:07.877Z,1.08
2023-02-11T12:50:53.494Z,1.08
2023-02-11T12:53:59.192Z,1.30
2023-02-11T12:56:59.305Z,1.30
2023-02-11T12:59:33.217Z,2.00
2023-02-11T13:02:01.394Z,1.52
2023-02-11T13:04:44.760Z,2.13
2023-02-11T13:07:16.985Z,1.60
2023-02-11T13:09:48.737Z,1.23
2023-02-11T13:12:34.506Z,1.85
2023-02-11T13:15:04.827Z,1.60
2023-02-11T13:17:44.270Z,1.60
2023-02-11T13:20:20.243Z,1.10
2023-02-11T13:22:54.007Z,1.30
2023-02-11T13:25:33.016Z,1.40
2023-02-11T13:27:59.957Z,1.67
2023-02-11T13:30:33.719Z,1.50
2023-02-11T13:33:03.529Z,1.60
2023-02-11T13:35:31.553Z,1.27
2023-02-11T13:37:59.492Z,1.70
2023-02-11T13:40:27.839Z,1.65
2023-02-11T13:42:56.332Z,2.72
2023-02-11T13:45:41.637Z,3.22
2023-02-11T13:48:17.042Z,4.35
2023-02-11T13:50:48.875Z,4.25
2023-02-11T13:53:16.238Z,3.45
2023-02-11T13:55:45.169Z,4.03
2023-02-11T13:58:12.117Z,2.95
2023-02-11T14:00:38.905Z,1.98
2023-02-11T14:03:30.613Z,1.20
2023-02-11T14:06:42.276Z,2.35
2023-02-11T14:09:29.107Z,2.15
2023-02-11T14:12:16.230Z,2.92
2023-02-11T14:15:21.844Z,2.33
2023-02-11T14:17:48.728Z,2.65
2023-02-11T14:20:34.284Z,1.70
2023-02-11T14:23:01.175Z,1.92
2023-02-11T14:25:28.197Z,2.03
2023-02-11T14:28:04.900Z,1.48
2023-02-11T14:30:48.395Z,2.38
2023-02-11T14:33:21.255Z,1.75
2023-02-11T14:35:58.461Z,1.38
2023-02-11T14:38:28.282Z,1.30
2023-02-11T14:41:10.456Z,1.98
2023-02-11T14:43:42.198Z,1.40
2023-02-11T14:46:09.785Z,1.45
2023-02-11T14:48:38.026Z,1.58
2023-02-11T14:51:07.585Z,1.35
2023-02-11T14:53:35.058Z,1.30
2023-02-11T14:56:01.991Z,1.50
2023-02-11T14:58:30.093Z,1.73
2023-02-11T15:00:58.819Z,1.85
2023-02-11T15:03:31.666Z,1.70
2023-02-11T15:06:18.860Z,1.98
2023-02-11T15:08:48.600Z,1.67
2023-02-11T15:11:17.212Z,2.10
2023-02-11T15:13:47.543Z,1.75
2023-02-11T15:16:18.592Z,1.77
2023-02-11T15:18:47.138Z,2.03
2023-02-11T15:21:20.032Z,2.03
2023-02-11T15:23:55.457Z,2.17
2023-02-11T15:26:22.562Z,2.05
2023-02-11T15:28:52.604Z,2.20
2023-02-11T15:31:23.895Z,1.73
2023-02-11T15:33:51.281Z,1.40
2023-02-11T15:36:19.525Z,1.42
2023-02-11T15:38:46.682Z,1.50
2023-02-11T15:41:32.344Z,1.50
2023-02-11T15:43:59.118Z,1.52
2023-02-11T15:46:31.387Z,1.23
2023-02-11T15:48:58.217Z,1.70
2023-02-11T15:51:31.324Z,1.80
2023-02-11T15:54:02.617Z,2.33
2023-02-11T15:56:33.058Z,2.50
2023-02-11T15:59:08.487Z,2.05
2023-02-11T16:01:37.361Z,2.35
2023-02-11T16:04:05.627Z,2.08
2023-02-11T16:06:36.629Z,1.75
2023-02-11T16:09:10.213Z,1.40
2023-02-11T16:11:53.770Z,1.13
2023-02-11T16:14:23.757Z,1.20
2023-02-11T16:16:52.030Z,1.10
2023-02-11T16:19:25.245Z,1.48
2023-02-11T16:21:53.541Z,1.50
2023-02-11T16:24:21.603Z,1.40
2023-02-11T16:26:53.498Z,1.10
2023-02-11T16:29:24.533Z,1.40
2023-02-11T16:31:52.557Z,1.40
2023-02-11T16:34:20.953Z,1.40
2023-02-11T16:36:48.282Z,1.33
2023-02-11T16:39:16.847Z,1.58
2023-02-11T16:41:44.000Z,1.10
2023-02-11T16:44:10.852Z,1.30
2023-02-11T16:46:37.806Z,1.35
2023-02-11T16:49:10.265Z,1.48
2023-02-11T16:51:41.526Z,1.17
2023-02-11T16:54:15.401Z,1.40
2023-02-11T16:56:42.708Z,1.48
2023-02-11T16:59:09.978Z,1.65
2023-02-11T17:01:38.410Z,1.73
2023-02-11T17:04:08.605Z,1.75
2023-02-11T17:06:35.518Z,1.65
2023-02-11T17:09:02.494Z,1.40
2023-02-11T17:11:31.642Z,1.55
2023-02-11T17:13:58.563Z,1.80
2023-02-11T17:16:26.390Z,1.77
2023-02-11T17:18:53.504Z,1.60
2023-02-11T17:21:20.376Z,1.52
2023-02-11T17:23:47.293Z,1.50
2023-02-11T17:26:14.209Z,1.55
2023-02-11T17:28:41.115Z,1.70
2023-02-11T17:31:11.541Z,2.00
2023-02-11T17:33:41.503Z,1.80
2023-02-11T17:36:09.150Z,2.28
2023-02-11T17:38:36.788Z,2.58
2023-02-11T17:41:04.859Z,2.55
2023-02-11T17:43:32.034Z,2.10
2023-02-11T17:45:58.919Z,2.50
2023-02-11T17:48:25.890Z,2.30
2023-02-11T17:50:52.957Z,2.80
2023-02-11T17:53:19.870Z,2.50
2023-02-11T17:55:46.722Z,3.10
2023-02-11T17:58:13.548Z,5.22
2023-02-11T18:00:40.630Z,6.68
2023-02-11T18:03:07.628Z,6.15
2023-02-11T18:05:35.648Z,3.55
2023-02-11T18:08:06.036Z,3.30
2023-02-11T18:10:33.602Z,4.97
2023-02-11T18:13:01.425Z,4.60
2023-02-11T18:15:31.165Z,6.80
2023-02-11T18:18:01.001Z,4.90
2023-02-11T18:20:27.888Z,5.18
2023-02-11T18:22:54.790Z,5.43
2023-02-11T18:25:21.835Z,5.13
2023-02-11T18:27:49.140Z,6.00
2023-02-11T18:30:19.577Z,5.68
2023-02-11T18:32:46.498Z,3.92
2023-02-11T18:35:15.228Z,3.97
2023-02-11T18:37:43.102Z,5.10
2023-02-11T18:40:10.774Z,5.35
2023-02-11T18:42:37.880Z,4.60
2023-02-11T18:45:07.178Z,4.55
2023-02-11T18:47:34.169Z,4.35
2023-02-11T18:50:01.173Z,4.38
2023-02-11T18:52:33.497Z,4.65
2023-02-11T18:55:00.297Z,4.72
2023-02-11T18:57:27.271Z,4.80
2023-02-11T18:59:54.208Z,4.90
2023-02-11T19:02:21.651Z,4.13
2023-02-11T19:04:48.577Z,4.97
2023-02-11T19:07:15.467Z,4.53
2023-02-11T19:09:42.686Z,4.40
2023-02-11T19:12:12.372Z,4.25
2023-02-11T19:14:42.098Z,4.40
2023-02-11T19:17:14.234Z,4.00
2023-02-11T19:19:48.800Z,4.55
2023-02-11T19:22:15.734Z,4.38
2023-02-11T19:24:44.730Z,4.22
2023-02-11T19:27:15.034Z,5.70
2023-02-11T19:29:41.946Z,6.30
2023-02-11T19:32:11.740Z,5.22
2023-02-11T19:34:43.771Z,6.15
2023-02-11T19:37:12.896Z,5.97
2023-02-11T19:39:42.488Z,6.45
2023-02-11T19:42:09.734Z,5.53
2023-02-11T19:44:36.906Z,5.25
2023-02-11T19:47:04.089Z,5.63
2023-02-11T19:49:33.047Z,5.35
2023-02-11T19:52:00.125Z,5.38
2023-02-11T19:54:29.092Z,4.88
2023-02-11T19:56:56.089Z,5.70
2023-02-11T19:59:28.998Z,5.25
2023-02-11T20:01:58.716Z,5.40
2023-02-11T20:04:25.524Z,5.40
2023-02-11T20:06:52.510Z,5.40
2023-02-11T20:09:22.387Z,5.07
2023-02-11T20:11:49.762Z,4.65
2023-02-11T20:14:17.006Z,5.38
2023-02-11T20:16:49.184Z,4.97
2023-02-11T20:19:21.154Z,7.07
2023-02-11T20:21:53.041Z,6.45
2023-02-11T20:24:23.223Z,5.90
2023-02-11T20:26:55.759Z,15.13
2023-02-11T20:29:23.707Z,8.05
2023-02-11T20:31:51.136Z,8.00
2023-02-11T20:34:21.230Z,7.22
2023-02-11T20:36:55.079Z,8.48
2023-02-11T20:39:25.518Z,8.93
2023-02-11T20:41:54.149Z,8.45
2023-02-11T20:44:26.841Z,8.93
2023-02-11T20:46:55.420Z,7.10
2023-02-11T20:49:26.536Z,8.20
2023-02-11T20:52:01.794Z,8.25
2023-02-11T20:54:31.329Z,7.40
2023-02-11T20:56:58.483Z,7.43
2023-02-11T20:59:25.930Z,8.18
2023-02-11T21:01:54.164Z,7.32
2023-02-11T21:04:22.509Z,6.85
2023-02-11T21:06:52.351Z,7.57
2023-02-11T21:09:20.382Z,7.35
2023-02-11T21:11:50.171Z,8.10
2023-02-11T21:14:20.884Z,6.72
2023-02-11T21:16:48.137Z,7.40
2023-02-11T21:19:15.110Z,6.60
2023-02-11T21:21:44.628Z,6.55
2023-02-11T21:24:11.580Z,6.35
2023-02-11T21:26:38.458Z,7.03
2023-02-11T21:29:06.534Z,6.00
2023-02-11T21:31:35.271Z,6.40
2023-02-11T21:34:02.698Z,6.00
2023-02-11T21:36:30.124Z,6.13
2023-02-11T21:38:57.373Z,5.82
2023-02-11T21:41:24.945Z,6.07
2023-02-11T21:43:52.163Z,5.82
2023-02-11T21:46:19.742Z,6.13
2023-02-11T21:48:46.758Z,5.75
2023-02-11T21:51:15.704Z,6.28
2023-02-11T21:53:42.520Z,5.95
2023-02-11T21:56:15.602Z,5.88
2023-02-11T21:58:45.176Z,5.47
2023-02-11T22:01:13.926Z,6.55
2023-02-11T22:03:41.183Z,8.10
2023-02-11T22:06:12.096Z,6.25
2023-02-11T22:08:39.420Z,7.30
2023-02-11T22:11:07.639Z,7.68
2023-02-11T22:13:34.974Z,7.57
2023-02-11T22:16:02.940Z,7.97
2023-02-11T22:18:32.356Z,7.50
2023-02-11T22:21:07.024Z,7.70
2023-02-11T22:23:34.036Z,7.60
2023-02-11T22:26:10.182Z,6.70
2023-02-11T22:28:39.034Z,7.18
2023-02-11T22:31:06.730Z,6.88
2023-02-11T22:33:33.956Z,7.78
2023-02-11T22:36:01.715Z,7.63
2023-02-11T22:38:29.457Z,7.57
2023-02-11T22:40:56.513Z,7.60
2023-02-11T22:43:25.685Z,7.47
2023-02-11T22:45:59.102Z,8.70
2023-02-11T22:48:26.340Z,7.95
2023-02-11T22:50:53.732Z,7.93
2023-02-11T22:53:23.467Z,8.52
2023-02-11T22:55:52.817Z,8.40
2023-02-11T22:58:20.263Z,7.57
2023-02-11T23:00:47.594Z,7.47
2023-02-11T23:03:15.671Z,8.93
2023-02-11T23:05:45.301Z,8.50
2023-02-11T23:08:12.965Z,8.23
2023-02-11T23:10:40.533Z,8.02
2023-02-11T23:13:08.059Z,7.35
2023-02-11T23:15:41.338Z,7.95
2023-02-11T23:18:11.214Z,8.38
2023-02-11T23:20:39.482Z,7.65
2023-02-11T23:23:06.935Z,7.38
2023-02-11T23:25:33.887Z,8.18
2023-02-11T23:28:01.225Z,8.00
2023-02-11T23:30:28.676Z,8.13
2023-02-11T23:32:55.603Z,7.45
2023-02-11T23:35:23.311Z,8.32
2023-02-11T23:37:50.603Z,7.97
2023-02-11T23:40:18.416Z,9.85
2023-02-11T23:42:45.808Z,9.45
2023-02-11T23:45:12.606Z,9.57
2023-02-11T23:47:40.124Z,8.77
2023-02-11T23:50:10.176Z,8.15
2023-02-11T23:52:37.296Z,8.88
2023-02-11T23:55:04.608Z,8.52
2023-02-11T23:57:32.604Z,8.15
